Leisenring, PA (15455)

12:23 AM EST on February 27, 2015 (GMT -0500)
Dunbar | Change Station
CLOSE
Current Station
Personal Weather Station
Location: Dunbar, PA
Elevation: 1056 ft
Nearby Weather Stations

Elev 1056 ft 40.00 °N, 79.69 °W | Updated 3 minutes ago

Snow
Snow
13.3 °F
Feels Like 6 °F
N
4.5
Wind Variable Wind from NW
Gusts 6.9 mph

Today
High -- | Low -- °F
--% Chance of Precip.
Yesterday
High -- | Low -- °F
Precip. -- in
6:55 AM 6:07 PM
Waxing Gibbous, 65% visible
Pressure 30.22 in
Visibility 3.0 miles
Clouds Few 100 ft
Mostly Cloudy 1300 ft
Overcast 8000 ft
Windchill 6 °F
Dew Point 6 °F
Humidity 71%
Rainfall 0.00 in
Snow Depth Not available.
UV 0 out of 12
Pollen .50 out of 12
Air Quality Not available.
Flu Activity Not available.
METAR KLBE 270515Z AUTO 28006KT 3SM -SN FEW001 BKN013 OVC080 M11/M13 A3022 RMK AO2 P0001

More Conditions Fewer Conditions

Pressure 30.22 in
Visibility 3.0 miles
Clouds Few 100 ft
Mostly Cloudy 1300 ft
Overcast 8000 ft
Windchill 6 °F
Dew Point 6 °F
Humidity 71%
Rainfall 0.00 in
Snow Depth Not available.
UV 0 out of 12
Pollen .50 out of 12
Air Quality Not available.
Flu Activity Not available.
METAR KLBE 270515Z AUTO 28006KT 3SM -SN FEW001 BKN013 OVC080 M11/M13 A3022 RMK AO2 P0001

More Conditions Fewer Conditions

10-Day Weather Forecast

Almanac

Astronomy

Feb. 27, 2015 Rise Set
Actual Time
Civil Twilight
Nautical Twilight
Astronomical Twilight
Moon
Length of Visible Light
Length of Day
Tomorrow will be .
, % of the Moon is Illuminated

Today's Extremes

State Highs State Lows

Community

WunderPhotos

Upload Photos

1,800,638 photos uploaded!

WunderBlogs® & News

Nearby

Air Quality

  Air Quality AQ Index Pollutant
Not available.

Snow Depth

Station Depth Elevation

Earthquake Activity

City Distance Mag. Time & Date
Minimum magnitude displayed is 2.5.

Coastal Water Temperatures

Place Temperature

Nearby Weather Stations